createdAt,value
2022-08-18T00:02:17.515Z,45.83
2022-08-18T00:04:49.195Z,47.99
2022-08-18T00:07:21.432Z,48.61
2022-08-18T00:09:49.590Z,50.10
2022-08-18T00:12:24.250Z,48.56
2022-08-18T00:14:52.699Z,48.48
2022-08-18T00:17:20.462Z,49.19
2022-08-18T00:19:48.542Z,50.16
2022-08-18T00:22:19.642Z,49.76
2022-08-18T00:24:53.019Z,49.45
2022-08-18T00:27:28.638Z,49.34
2022-08-18T00:29:59.944Z,47.63
2022-08-18T00:32:34.184Z,46.98
2022-08-18T00:35:18.567Z,46.68
2022-08-18T00:37:47.182Z,46.94
2022-08-18T00:40:21.058Z,47.11
2022-08-18T00:42:52.704Z,48.16
2022-08-18T00:45:25.432Z,49.21
2022-08-18T00:47:54.010Z,50.21
2022-08-18T00:51:00.866Z,49.26
2022-08-18T00:53:33.457Z,50.91
2022-08-18T00:56:06.953Z,50.99
2022-08-18T00:58:50.942Z,51.64
2022-08-18T01:01:23.403Z,51.89
2022-08-18T01:03:54.456Z,53.35
2022-08-18T01:06:39.839Z,52.98
2022-08-18T01:09:08.815Z,52.89
2022-08-18T01:11:38.260Z,51.61
2022-08-18T01:14:08.561Z,51.86
2022-08-18T01:16:57.403Z,50.43
2022-08-18T01:19:45.318Z,49.42
2022-08-18T01:22:23.030Z,47.64
2022-08-18T01:25:10.608Z,46.96
2022-08-18T01:27:39.116Z,46.62
2022-08-18T01:30:11.898Z,47.46
2022-08-18T01:32:41.681Z,48.18
2022-08-18T01:35:10.686Z,50.31
2022-08-18T01:37:38.507Z,50.25
2022-08-18T01:41:22.319Z,49.07
2022-08-18T01:42:56.908Z,48.82
2022-08-18T01:45:24.938Z,50.10
2022-08-18T01:47:52.314Z,52.10
2022-08-18T01:50:19.965Z,50.56
2022-08-18T01:52:47.816Z,52.43
2022-08-18T01:55:15.314Z,50.60
2022-08-18T01:57:45.113Z,49.71
2022-08-18T02:00:16.144Z,49.49
2022-08-18T02:02:43.959Z,51.65
2022-08-18T02:05:16.424Z,50.66
2022-08-18T02:07:44.643Z,50.41
2022-08-18T02:10:12.569Z,51.88
2022-08-18T02:12:44.371Z,50.50
2022-08-18T02:15:12.387Z,50.69
2022-08-18T02:17:42.370Z,49.57
2022-08-18T02:20:13.627Z,53.40
2022-08-18T02:22:41.793Z,54.73
2022-08-18T02:25:10.137Z,56.29
2022-08-18T02:27:38.143Z,54.31
2022-08-18T02:30:09.177Z,57.34
2022-08-18T02:32:36.777Z,57.73
2022-08-18T02:35:06.403Z,58.02
2022-08-18T02:37:42.179Z,56.46
2022-08-18T02:40:15.207Z,56.28
2022-08-18T02:42:44.916Z,53.70
2022-08-18T02:45:13.734Z,52.36
2022-08-18T02:47:41.291Z,52.70
2022-08-18T02:50:11.898Z,53.92
2022-08-18T02:52:40.588Z,56.99
2022-08-18T02:55:09.042Z,57.75
2022-08-18T02:57:36.653Z,57.03
2022-08-18T03:00:04.728Z,55.13
2022-08-18T03:02:32.426Z,54.82
2022-08-18T03:04:59.914Z,57.60
2022-08-18T03:07:27.580Z,58.27
2022-08-18T03:09:54.977Z,59.32
2022-08-18T03:12:22.400Z,60.36
2022-08-18T03:14:50.249Z,59.96
2022-08-18T03:17:17.677Z,59.67
2022-08-18T03:19:46.792Z,58.56
2022-08-18T03:22:27.590Z,57.98
2022-08-18T03:24:58.057Z,56.56
2022-08-18T03:27:26.282Z,55.17
2022-08-18T03:29:53.742Z,54.95
2022-08-18T03:32:21.279Z,54.07
2022-08-18T03:34:49.019Z,53.49
2022-08-18T03:37:16.444Z,54.69
2022-08-18T03:39:43.988Z,57.54
2022-08-18T03:42:11.823Z,57.20
2022-08-18T03:44:39.548Z,58.13
2022-08-18T03:47:10.926Z,57.21
2022-08-18T03:49:39.306Z,59.29
2022-08-18T03:52:10.583Z,60.16
2022-08-18T03:54:39.248Z,57.36
2022-08-18T03:59:56.468Z,58.72
2022-08-18T04:02:24.183Z,59.91
2022-08-18T04:04:51.953Z,59.75
2022-08-18T04:07:19.515Z,59.14
2022-08-18T04:09:47.146Z,57.42
2022-08-18T04:12:16.569Z,57.06
2022-08-18T04:14:48.459Z,56.87
2022-08-18T04:17:23.365Z,55.16
2022-08-18T04:19:52.583Z,58.18
2022-08-18T04:22:20.666Z,56.89
2022-08-18T04:24:50.377Z,55.36
2022-08-18T04:27:19.355Z,54.61
2022-08-18T04:29:47.410Z,55.26
2022-08-18T04:32:15.204Z,55.50
2022-08-18T04:34:42.624Z,57.81
2022-08-18T04:37:10.944Z,57.43
2022-08-18T04:39:38.544Z,56.78
2022-08-18T04:42:06.185Z,56.59
2022-08-18T04:44:35.400Z,56.67
2022-08-18T04:47:02.920Z,57.67
2022-08-18T04:49:32.061Z,60.33
2022-08-18T04:52:36.588Z,58.45
2022-08-18T04:55:06.558Z,57.45
2022-08-18T04:57:35.187Z,57.90
2022-08-18T05:00:05.820Z,58.20
2022-08-18T05:02:33.636Z,56.92
2022-08-18T05:05:04.540Z,57.52
2022-08-18T05:07:32.508Z,56.35
2022-08-18T05:09:59.922Z,56.77
2022-08-18T05:12:28.896Z,56.57
2022-08-18T05:14:59.109Z,56.36
2022-08-18T05:17:30.634Z,57.55
2022-08-18T05:20:00.229Z,58.10
2022-08-18T05:22:31.161Z,59.62
2022-08-18T05:27:45.272Z,57.49
2022-08-18T05:30:15.214Z,58.06
2022-08-18T05:32:48.593Z,57.19
2022-08-18T05:35:25.539Z,57.97
2022-08-18T05:37:59.186Z,57.04
2022-08-18T05:40:27.403Z,56.27
2022-08-18T05:42:56.109Z,56.13
2022-08-18T05:45:24.202Z,56.05
2022-08-18T05:47:57.640Z,55.74
2022-08-18T05:50:26.561Z,54.95
2022-08-18T05:52:58.478Z,54.12
2022-08-18T05:56:09.388Z,53.87
2022-08-18T05:58:40.582Z,54.21
2022-08-18T06:01:15.507Z,53.07
2022-08-18T06:03:56.376Z,53.33
2022-08-18T06:06:26.314Z,52.89
2022-08-18T06:09:16.525Z,52.02
2022-08-18T06:11:44.482Z,51.95
2022-08-18T06:14:13.505Z,51.72
2022-08-18T06:16:56.445Z,50.80
2022-08-18T06:19:49.542Z,50.36
2022-08-18T06:22:31.438Z,50.45
2022-08-18T06:25:11.714Z,50.51
2022-08-18T06:27:51.704Z,50.10
2022-08-18T06:30:23.619Z,49.60
2022-08-18T06:33:01.118Z,49.83
2022-08-18T06:35:39.760Z,49.48
2022-08-18T06:38:32.795Z,49.32
2022-08-18T06:41:09.043Z,49.29
2022-08-18T06:44:09.489Z,49.51
2022-08-18T06:47:00.514Z,49.25
2022-08-18T06:49:46.692Z,49.03
2022-08-18T06:52:26.446Z,49.16
2022-08-18T06:54:56.078Z,48.48
2022-08-18T06:57:34.774Z,48.35
2022-08-18T07:00:09.779Z,48.27
2022-08-18T07:03:00.727Z,48.90
2022-08-18T07:05:33.088Z,48.33
2022-08-18T07:08:10.721Z,47.96
2022-08-18T07:10:49.494Z,48.50
2022-08-18T07:13:29.998Z,48.70
2022-08-18T07:16:17.317Z,46.86
2022-08-18T07:18:48.327Z,46.42
2022-08-18T07:21:31.056Z,45.13
2022-08-18T07:24:23.754Z,44.50
2022-08-18T07:27:04.623Z,42.40
2022-08-18T07:29:35.634Z,40.23
2022-08-18T07:32:15.499Z,38.57
2022-08-18T07:34:53.687Z,35.88
2022-08-18T07:37:33.298Z,32.74
2022-08-18T07:40:45.265Z,30.95
2022-08-18T07:43:18.308Z,28.89
2022-08-18T07:45:46.720Z,29.00
2022-08-18T07:51:17.189Z,28.12
2022-08-18T07:53:59.711Z,26.30
2022-08-18T07:56:40.028Z,26.35
2022-08-18T07:59:19.592Z,25.19
2022-08-18T08:02:24.729Z,24.08
2022-08-18T08:05:37.218Z,24.15
2022-08-18T08:08:19.138Z,23.54
2022-08-18T08:11:11.230Z,23.28
2022-08-18T08:13:56.481Z,22.99
2022-08-18T08:16:53.563Z,23.08
2022-08-18T08:20:01.245Z,22.83
2022-08-18T08:22:49.843Z,23.47
2022-08-18T08:26:04.713Z,22.91
2022-08-18T08:28:45.110Z,23.54
2022-08-18T08:31:38.971Z,24.28
2022-08-18T08:34:33.420Z,23.59
2022-08-18T08:37:04.542Z,23.44
2022-08-18T08:39:37.807Z,23.81
2022-08-18T08:42:31.629Z,24.12
2022-08-18T08:45:04.749Z,24.70
2022-08-18T08:47:44.452Z,23.31
2022-08-18T08:50:20.264Z,23.27
2022-08-18T08:52:56.690Z,24.17
2022-08-18T08:55:27.705Z,23.40
2022-08-18T08:58:01.074Z,24.32
2022-08-18T09:00:29.612Z,25.73
2022-08-18T09:03:30.086Z,25.32
2022-08-18T09:06:20.274Z,26.38
2022-08-18T09:09:06.349Z,26.14
2022-08-18T09:11:46.316Z,26.96
2022-08-18T09:14:26.131Z,26.81
2022-08-18T09:17:30.041Z,26.84
2022-08-18T09:20:27.897Z,26.61
2022-08-18T09:23:20.004Z,26.32
2022-08-18T09:25:52.052Z,27.07
2022-08-18T09:28:29.105Z,27.30
2022-08-18T09:31:02.517Z,27.38
2022-08-18T09:33:34.485Z,27.51
2022-08-18T09:36:43.760Z,27.25
2022-08-18T09:39:54.737Z,27.00
2022-08-18T09:42:48.621Z,27.21
2022-08-18T09:45:33.510Z,27.09
2022-08-18T09:48:25.286Z,26.99
2022-08-18T09:51:17.798Z,26.59
2022-08-18T09:53:54.117Z,26.33
2022-08-18T09:59:37.305Z,26.37
2022-08-18T10:02:14.070Z,26.05
2022-08-18T10:04:51.206Z,25.26
2022-08-18T10:11:02.316Z,25.22
2022-08-18T10:13:49.621Z,24.76
2022-08-18T10:20:25.907Z,24.17
2022-08-18T10:22:57.299Z,23.48
2022-08-18T10:25:41.896Z,22.87
2022-08-18T10:28:12.752Z,23.03
2022-08-18T10:30:56.249Z,22.80
2022-08-18T10:33:59.671Z,23.30
2022-08-18T10:36:45.287Z,23.44
2022-08-18T10:39:16.922Z,22.60
2022-08-18T10:42:11.022Z,22.45
2022-08-18T10:44:43.265Z,21.99
2022-08-18T10:47:25.123Z,21.93
2022-08-18T10:50:07.255Z,22.34
2022-08-18T10:52:51.065Z,22.34
2022-08-18T10:55:47.888Z,22.14
2022-08-18T10:58:42.552Z,21.33
2022-08-18T11:01:24.875Z,22.30
2022-08-18T11:04:00.315Z,22.74
2022-08-18T11:06:49.241Z,22.99
2022-08-18T11:09:28.732Z,23.16
2022-08-18T11:12:01.935Z,22.48
2022-08-18T11:14:51.845Z,21.73
2022-08-18T11:17:40.669Z,21.39
2022-08-18T11:20:12.169Z,21.45
2022-08-18T11:22:51.995Z,21.03
2022-08-18T11:25:24.258Z,20.82
2022-08-18T11:27:53.095Z,20.71
2022-08-18T11:30:21.328Z,20.20
2022-08-18T11:33:01.280Z,19.85
2022-08-18T11:35:51.066Z,20.81
2022-08-18T11:38:23.597Z,20.48
2022-08-18T11:41:14.341Z,21.37
2022-08-18T11:43:46.809Z,21.63
2022-08-18T11:46:29.368Z,20.47
2022-08-18T11:49:01.010Z,19.59
2022-08-18T11:51:32.391Z,20.79
2022-08-18T11:54:15.453Z,20.96
2022-08-18T11:56:44.345Z,20.64
2022-08-18T11:59:52.244Z,20.61
2022-08-18T12:02:17.250Z,20.61
2022-08-18T12:04:50.516Z,20.51
2022-08-18T12:07:27.839Z,20.14
2022-08-18T12:13:08.130Z,20.25
2022-08-18T12:15:46.596Z,20.70
2022-08-18T12:18:26.374Z,21.17
2022-08-18T12:20:58.594Z,20.37
2022-08-18T12:23:26.708Z,19.66
2022-08-18T12:25:54.117Z,19.37
2022-08-18T12:28:22.398Z,19.35
2022-08-18T12:30:56.071Z,19.16
2022-08-18T12:33:25.294Z,19.63
2022-08-18T12:36:05.991Z,20.67
2022-08-18T12:38:36.491Z,20.85
2022-08-18T12:41:05.420Z,21.47
2022-08-18T12:46:21.325Z,21.55
2022-08-18T12:48:53.103Z,20.67
2022-08-18T12:51:24.688Z,20.15
2022-08-18T12:54:00.021Z,21.30
2022-08-18T12:56:31.068Z,21.42
2022-08-18T12:59:01.284Z,20.88
2022-08-18T13:01:33.470Z,21.00
2022-08-18T13:04:11.087Z,21.13
2022-08-18T13:06:59.332Z,20.87
2022-08-18T13:09:35.015Z,20.09
2022-08-18T13:12:16.693Z,20.74
2022-08-18T13:14:45.522Z,20.15
2022-08-18T13:17:32.891Z,20.20
2022-08-18T13:20:11.238Z,20.78
2022-08-18T13:22:41.395Z,21.06
2022-08-18T13:25:12.533Z,21.05
2022-08-18T13:27:43.595Z,20.25
2022-08-18T13:30:31.427Z,19.61
2022-08-18T13:33:05.564Z,20.10
2022-08-18T13:35:52.097Z,20.69
2022-08-18T13:38:25.983Z,20.42
2022-08-18T13:40:58.179Z,20.02
2022-08-18T13:43:32.365Z,20.19
2022-08-18T13:46:06.057Z,20.19
2022-08-18T13:48:33.851Z,19.53
2022-08-18T13:51:02.344Z,19.43
2022-08-18T13:53:31.617Z,18.26
2022-08-18T13:56:00.062Z,18.94
2022-08-18T13:58:29.188Z,18.80
2022-08-18T14:01:22.676Z,18.59
2022-08-18T14:03:48.184Z,18.51
2022-08-18T14:06:22.110Z,18.20
2022-08-18T14:08:52.721Z,18.41
2022-08-18T14:11:23.656Z,18.04
2022-08-18T14:13:54.679Z,18.21
2022-08-18T14:16:26.783Z,17.97
2022-08-18T14:19:14.016Z,18.58
2022-08-18T14:22:11.217Z,19.76
2022-08-18T14:25:00.224Z,19.94
2022-08-18T14:27:34.906Z,19.60
2022-08-18T14:30:11.545Z,19.01
2022-08-18T14:32:48.941Z,18.82
2022-08-18T14:35:33.361Z,19.29
2022-08-18T14:38:07.171Z,19.71
2022-08-18T14:40:41.789Z,20.23
2022-08-18T14:43:16.099Z,20.32
2022-08-18T14:45:48.837Z,20.49
2022-08-18T14:48:19.065Z,19.52
2022-08-18T14:50:53.058Z,19.25
2022-08-18T14:53:22.818Z,19.04
2022-08-18T14:55:52.667Z,19.03
2022-08-18T14:58:24.404Z,19.25
2022-08-18T15:00:53.853Z,18.94
2022-08-18T15:03:28.328Z,18.56
2022-08-18T15:06:04.576Z,18.31
2022-08-18T15:08:35.285Z,18.38
2022-08-18T15:11:06.154Z,18.04
2022-08-18T15:13:42.228Z,18.54
2022-08-18T15:16:13.801Z,18.27
2022-08-18T15:18:43.468Z,18.73
2022-08-18T15:21:38.416Z,18.34
2022-08-18T15:24:26.039Z,18.70
2022-08-18T15:26:57.472Z,19.28
2022-08-18T15:29:28.973Z,19.58
2022-08-18T15:32:05.665Z,19.14
2022-08-18T15:34:47.342Z,19.69
2022-08-18T15:37:24.433Z,19.90
2022-08-18T15:40:02.832Z,20.14
2022-08-18T15:42:30.961Z,19.90
2022-08-18T15:45:11.537Z,19.42
2022-08-18T15:47:43.186Z,19.86
2022-08-18T15:50:25.651Z,19.70
2022-08-18T15:52:57.728Z,20.52
2022-08-18T15:55:28.658Z,20.27
2022-08-18T15:57:58.255Z,20.14
2022-08-18T16:00:28.479Z,19.92
2022-08-18T16:03:00.192Z,19.43
2022-08-18T16:05:33.583Z,19.21
2022-08-18T16:08:01.462Z,19.24
2022-08-18T16:10:32.376Z,19.25
2022-08-18T16:13:01.668Z,19.27
2022-08-18T16:15:30.892Z,19.90
2022-08-18T16:17:59.379Z,19.82
2022-08-18T16:20:29.355Z,20.47
2022-08-18T16:22:59.916Z,20.26
2022-08-18T16:25:27.583Z,19.81
2022-08-18T16:27:55.587Z,19.82
2022-08-18T16:30:25.749Z,19.94
2022-08-18T16:32:53.450Z,20.53
2022-08-18T16:35:23.161Z,20.13
2022-08-18T16:37:50.971Z,20.60
2022-08-18T16:40:19.364Z,20.56
2022-08-18T16:42:47.239Z,20.43
2022-08-18T16:45:22.011Z,21.19
2022-08-18T16:47:49.652Z,21.12
2022-08-18T16:50:20.085Z,20.58
2022-08-18T16:52:47.929Z,20.40
2022-08-18T16:55:15.371Z,20.44
2022-08-18T16:58:02.855Z,20.92
2022-08-18T17:00:55.077Z,20.77
2022-08-18T17:03:42.889Z,20.94
2022-08-18T17:06:13.976Z,21.41
2022-08-18T17:08:42.622Z,21.90
2022-08-18T17:11:13.868Z,22.22
2022-08-18T17:13:42.650Z,22.47
2022-08-18T17:16:11.028Z,23.29
2022-08-18T17:18:38.798Z,24.05
2022-08-18T17:21:07.905Z,24.40
2022-08-18T17:23:38.735Z,23.15
2022-08-18T17:26:10.076Z,23.65
2022-08-18T17:28:50.758Z,23.68
2022-08-18T17:31:22.631Z,24.07
2022-08-18T17:33:52.146Z,24.50
2022-08-18T17:36:23.570Z,24.03
2022-08-18T17:38:54.723Z,24.03
2022-08-18T17:41:23.686Z,24.38
2022-08-18T17:43:52.452Z,23.34
2022-08-18T17:46:27.391Z,23.95
2022-08-18T17:49:04.017Z,24.29
2022-08-18T17:51:43.486Z,24.18
2022-08-18T17:54:19.174Z,24.84
2022-08-18T17:56:52.742Z,25.20
2022-08-18T17:59:45.740Z,25.72
2022-08-18T18:02:28.557Z,26.21
2022-08-18T18:04:58.454Z,26.43
2022-08-18T18:07:54.816Z,26.30
2022-08-18T18:10:27.578Z,27.02
2022-08-18T18:13:34.275Z,26.84
2022-08-18T18:16:20.949Z,29.02
2022-08-18T18:18:59.877Z,29.00
2022-08-18T18:22:00.356Z,30.08
2022-08-18T18:24:24.029Z,29.68
2022-08-18T18:26:52.350Z,28.89
2022-08-18T18:29:37.387Z,30.08
2022-08-18T18:32:24.380Z,30.11
2022-08-18T18:35:31.352Z,31.33
2022-08-18T18:38:05.435Z,30.41
2022-08-18T18:40:37.296Z,29.35
2022-08-18T18:43:39.432Z,30.67
2022-08-18T18:46:18.355Z,30.47
2022-08-18T18:49:01.770Z,30.48
2022-08-18T18:51:38.408Z,32.00
2022-08-18T18:54:15.026Z,32.80
2022-08-18T18:56:49.437Z,35.12
2022-08-18T18:59:28.913Z,35.25
2022-08-18T19:02:34.498Z,35.52
2022-08-18T19:05:35.218Z,37.05
2022-08-18T19:08:20.847Z,36.00
2022-08-18T19:11:01.649Z,36.03
2022-08-18T19:13:34.955Z,36.67
2022-08-18T19:16:24.349Z,36.49
2022-08-18T19:19:38.009Z,36.75
2022-08-18T19:22:27.397Z,37.14
2022-08-18T19:25:21.844Z,36.60
2022-08-18T19:28:07.729Z,36.25
2022-08-18T19:30:39.500Z,38.36
2022-08-18T19:33:07.762Z,38.88
2022-08-18T19:35:58.746Z,38.82
2022-08-18T19:38:37.024Z,39.26
2022-08-18T19:41:11.001Z,40.27
2022-08-18T19:44:04.725Z,42.37
2022-08-18T19:46:45.306Z,44.38
2022-08-18T19:49:31.614Z,43.83
2022-08-18T19:52:46.666Z,42.66
2022-08-18T19:55:18.112Z,42.52
2022-08-18T19:58:01.695Z,43.19
2022-08-18T20:00:56.351Z,42.28
2022-08-18T20:03:33.848Z,41.20
2022-08-18T20:06:33.620Z,40.34
2022-08-18T20:09:21.348Z,43.86
2022-08-18T20:11:52.535Z,41.19
2022-08-18T20:14:20.343Z,44.07
2022-08-18T20:17:09.613Z,39.72
2022-08-18T20:19:43.207Z,39.51
2022-08-18T20:22:32.260Z,38.44
2022-08-18T20:25:17.612Z,38.12
2022-08-18T20:27:58.472Z,36.92
2022-08-18T20:30:47.332Z,36.63
2022-08-18T20:33:24.209Z,36.66
2022-08-18T20:36:03.973Z,36.53
2022-08-18T20:38:37.475Z,36.20
2022-08-18T20:41:50.576Z,36.28
2022-08-18T20:44:47.959Z,37.34
2022-08-18T20:47:34.311Z,38.62
2022-08-18T20:50:31.655Z,37.29
2022-08-18T20:53:19.187Z,36.45
2022-08-18T20:56:43.470Z,36.28
2022-08-18T20:59:20.158Z,37.62
2022-08-18T21:02:00.044Z,38.17
2022-08-18T21:04:48.704Z,38.35
2022-08-18T21:07:36.224Z,39.01
2022-08-18T21:10:20.635Z,37.70
2022-08-18T21:12:54.997Z,36.41
2022-08-18T21:15:26.156Z,36.31
2022-08-18T21:18:17.666Z,36.47
2022-08-18T21:20:50.941Z,36.51
2022-08-18T21:23:35.699Z,36.38
2022-08-18T21:26:07.270Z,36.02
2022-08-18T21:28:36.777Z,36.44
2022-08-18T21:31:29.200Z,35.88
2022-08-18T21:34:33.382Z,36.20
2022-08-18T21:37:06.458Z,36.93
2022-08-18T21:39:35.247Z,37.08
2022-08-18T21:42:02.953Z,36.78
2022-08-18T21:44:44.549Z,37.51
2022-08-18T21:47:21.500Z,36.77
2022-08-18T21:50:14.850Z,36.63
2022-08-18T21:52:56.945Z,36.38
2022-08-18T21:55:39.853Z,36.38
2022-08-18T21:58:19.772Z,36.66
2022-08-18T22:01:23.124Z,36.68
2022-08-18T22:03:59.579Z,36.64
2022-08-18T22:06:28.551Z,37.25
2022-08-18T22:09:30.411Z,36.98
2022-08-18T22:12:35.280Z,37.00
2022-08-18T22:15:23.072Z,37.44
2022-08-18T22:17:51.796Z,36.90
2022-08-18T22:20:38.278Z,36.86
2022-08-18T22:23:43.111Z,37.39
2022-08-18T22:26:17.957Z,37.43
2022-08-18T22:29:00.558Z,37.39
2022-08-18T22:31:31.511Z,37.33
2022-08-18T22:34:06.354Z,37.52
2022-08-18T22:36:40.415Z,37.86
2022-08-18T22:39:10.204Z,37.74
2022-08-18T22:41:38.735Z,37.78
2022-08-18T22:44:07.112Z,37.80
2022-08-18T22:46:35.352Z,37.61
2022-08-18T22:49:04.510Z,38.05
2022-08-18T22:51:32.914Z,38.22
2022-08-18T22:54:00.358Z,38.19
2022-08-18T22:56:34.958Z,38.12
2022-08-18T22:59:16.032Z,37.90
2022-08-18T23:01:48.132Z,38.17
2022-08-18T23:04:21.174Z,38.23
2022-08-18T23:06:52.455Z,37.96
2022-08-18T23:09:25.974Z,38.14
2022-08-18T23:11:55.826Z,38.53
2022-08-18T23:14:23.697Z,38.85
2022-08-18T23:16:51.311Z,38.59
2022-08-18T23:19:20.387Z,39.66
2022-08-18T23:21:48.725Z,39.16
2022-08-18T23:24:21.581Z,38.97
2022-08-18T23:26:49.978Z,40.18
2022-08-18T23:29:19.844Z,39.13
2022-08-18T23:31:48.467Z,39.47
2022-08-18T23:34:20.074Z,39.00
2022-08-18T23:36:55.543Z,39.61
2022-08-18T23:39:25.290Z,39.82
2022-08-18T23:41:53.732Z,39.52
2022-08-18T23:44:23.942Z,39.68
2022-08-18T23:46:58.054Z,40.15
2022-08-18T23:49:30.464Z,40.18
2022-08-18T23:51:59.288Z,40.44
2022-08-18T23:54:30.616Z,40.41
2022-08-18T23:56:58.267Z,40.26
2022-08-18T23:59:27.136Z,40.15
